Time;durP1;ratioP1;P1;durP2;ratioP2;P2;SDS_P1;SDS_P2;PMS_P1;PMS_P2;Temp;Humidity;BMP_temperature;BMP_pressure;BME280_temperature;BME280_humidity;BME280_pressure;Samples;Min_cycle;Max_cycle;Signal;HPM_P1;HPM_P2
2022/04/07 00:01:53;;;;;;;9.13;1.52;;;;;;;4.56;100.00;98188.72;5028138;28;20478;-79
2022/04/07 00:04:20;;;;;;;3.67;0.90;;;;;;;4.68;100.00;98178.28;5026504;28;20037;-77
2022/04/07 00:06:46;;;;;;;2.45;0.80;;;;;;;4.83;100.00;98170.16;5055739;28;20232;-78
2022/04/07 00:09:12;;;;;;;2.92;1.00;;;;;;;4.97;100.00;98142.50;5038121;28;21477;-79
2022/04/07 00:11:38;;;;;;;0.50;0.50;;;;;;;4.91;100.00;98196.59;5075727;28;20020;-78
2022/04/07 00:14:03;;;;;;;11.68;1.90;;;;;;;4.89;100.00;98181.81;5063776;28;20024;-78
2022/04/07 00:16:29;;;;;;;10.27;2.58;;;;;;;4.85;100.00;98179.56;5067098;28;20412;-80
2022/04/07 00:18:54;;;;;;;7.00;2.17;;;;;;;4.85;100.00;98195.53;5050608;28;20048;-78
2022/04/07 00:21:35;;;;;;;1.75;0.65;;;;;;;4.87;100.00;98214.00;5058303;28;20432;-77
2022/04/07 00:24:03;;;;;;;0.40;0.40;;;;;;;4.84;100.00;98212.56;5046976;28;20033;-78
2022/04/07 00:26:29;;;;;;;4.18;0.90;;;;;;;4.82;100.00;98222.59;5060154;28;20049;-78
2022/04/07 00:28:54;;;;;;;6.97;1.60;;;;;;;4.77;100.00;98203.72;5043329;28;20028;-77
2022/04/07 00:31:20;;;;;;;1.50;0.70;;;;;;;4.94;100.00;98228.13;5046856;28;20086;-79
2022/04/07 00:33:51;;;;;;;14.93;2.50;;;;;;;4.95;100.00;98197.81;5048574;28;20040;-79
2022/04/07 00:36:17;;;;;;;5.80;2.00;;;;;;;4.94;100.00;98229.97;5063758;28;20052;-78
2022/04/07 00:38:44;;;;;;;2.15;0.90;;;;;;;4.82;100.00;98225.25;5065078;28;20039;-79
2022/04/07 00:41:10;;;;;;;5.32;1.92;;;;;;;4.63;100.00;98228.66;5048351;28;20076;-79
2022/04/07 00:43:36;;;;;;;0.70;0.70;;;;;;;4.42;100.00;98229.63;5063573;28;20072;-78
2022/04/07 00:46:03;;;;;;;8.27;1.90;;;;;;;4.17;100.00;98227.44;5048258;28;20432;-78
2022/04/07 00:48:30;;;;;;;5.85;1.38;;;;;;;4.15;100.00;98233.97;5062982;28;20650;-79
2022/04/07 00:50:56;;;;;;;5.13;1.95;;;;;;;4.45;100.00;98260.34;5067538;28;20362;-79
2022/04/07 00:53:23;;;;;;;2.42;1.10;;;;;;;4.46;100.00;98261.97;5064411;28;20028;-77
2022/04/07 00:55:51;;;;;;;6.32;1.40;;;;;;;4.33;100.00;98250.22;5045839;28;20074;-78
2022/04/07 00:58:18;;;;;;;5.35;1.63;;;;;;;4.33;100.00;98255.53;5050978;28;20040;-79
2022/04/07 01:00:46;;;;;;;1.77;0.80;;;;;;;4.29;100.00;98267.63;5074454;28;20077;-77
2022/04/07 01:03:12;;;;;;;11.98;2.17;;;;;;;4.22;100.00;98248.13;5066168;28;20036;-78
2022/04/07 01:05:38;;;;;;;2.42;0.70;;;;;;;4.25;100.00;98253.06;5049738;28;20347;-80
2022/04/07 01:08:06;;;;;;;5.40;1.85;;;;;;;4.04;100.00;98231.88;5082561;28;20036;-79
2022/04/07 01:10:38;;;;;;;0.70;0.70;;;;;;;4.16;100.00;98251.59;5041055;28;20391;-77
2022/04/07 01:13:03;;;;;;;4.68;1.05;;;;;;;4.18;100.00;98250.38;5052873;28;20078;-78
2022/04/07 01:15:29;;;;;;;12.27;2.33;;;;;;;4.43;100.00;98249.06;5064701;28;20040;-79
2022/04/07 01:17:56;;;;;;;2.58;0.80;;;;;;;4.61;100.00;98258.13;5075352;28;20039;-77
2022/04/07 01:20:21;;;;;;;11.73;2.85;;;;;;;4.72;100.00;98245.28;5066646;28;20032;-78
2022/04/07 01:22:48;;;;;;;4.75;1.60;;;;;;;4.66;100.00;98259.38;5048094;28;20054;-77
2022/04/07 01:25:14;;;;;;;8.93;1.92;;;;;;;4.48;100.00;98257.28;5042832;28;20086;-77
2022/04/07 01:27:40;;;;;;;10.43;2.58;;;;;;;4.28;100.00;98249.19;5060223;28;20036;-78
2022/04/07 01:30:10;;;;;;;9.43;2.17;;;;;;;4.12;100.00;98263.63;5045936;28;20037;-79
2022/04/07 01:32:45;;;;;;;5.28;2.45;;;;;;;3.99;100.00;98282.97;5071260;28;20064;-78
2022/04/07 01:35:12;;;;;;;0.52;0.50;;;;;;;3.94;100.00;98278.25;5061299;28;20044;-77
2022/04/07 01:37:38;;;;;;;0.90;0.77;;;;;;;4.10;100.00;98287.75;5063502;28;20029;-78
2022/04/07 01:40:06;;;;;;;8.18;1.65;;;;;;;4.24;100.00;98299.31;5062239;28;20040;-78
2022/04/07 01:42:33;;;;;;;8.43;1.77;;;;;;;4.24;100.00;98293.16;5064836;28;20149;-79
2022/04/07 01:45:01;;;;;;;0.60;0.60;;;;;;;4.23;100.00;98284.34;5042692;28;20090;-79
2022/04/07 01:47:27;;;;;;;12.40;2.35;;;;;;;4.09;100.00;98298.59;5077149;28;20042;-77
2022/04/07 01:49:56;;;;;;;4.00;1.48;;;;;;;4.00;100.00;98283.81;5042928;28;20036;-77
2022/04/07 01:52:21;;;;;;;5.15;1.30;;;;;;;3.88;100.00;98279.00;5057658;28;20134;-79
2022/04/07 01:54:48;;;;;;;12.25;2.58;;;;;;;4.06;100.00;98293.66;5082044;28;20575;-78
2022/04/07 01:57:15;;;;;;;9.52;2.90;;;;;;;4.27;100.00;98290.94;5049849;28;20178;-79
2022/04/07 01:59:41;;;;;;;0.60;0.60;;;;;;;4.25;100.00;98300.13;5046742;28;20029;-80
2022/04/07 02:02:07;;;;;;;5.38;1.20;;;;;;;4.17;100.00;98303.75;5062898;28;20129;-77
2022/04/07 02:04:33;;;;;;;1.48;0.73;;;;;;;4.08;100.00;98294.28;5028281;28;20489;-79
2022/04/07 02:06:58;;;;;;;8.00;1.13;;;;;;;4.11;100.00;98299.22;5032065;28;20059;-79
2022/04/07 02:09:24;;;;;;;3.72;0.80;;;;;;;4.18;100.00;98297.41;5063293;28;20036;-79
2022/04/07 02:11:50;;;;;;;0.52;0.52;;;;;;;4.19;100.00;98291.91;5062221;28;20079;-79
2022/04/07 02:14:15;;;;;;;2.00;0.85;;;;;;;4.07;100.00;98290.78;5059197;28;20086;-78
2022/04/07 02:16:44;;;;;;;6.80;1.20;;;;;;;4.04;100.00;98309.78;5060218;28;20387;-77
2022/04/07 02:19:09;;;;;;;5.95;1.48;;;;;;;4.09;100.00;98306.56;5047037;28;20052;-77
2022/04/07 02:21:35;;;;;;;12.25;1.73;;;;;;;4.33;100.00;98314.06;5056883;28;20178;-79
2022/04/07 02:24:00;;;;;;;12.20;3.03;;;;;;;4.53;100.00;98314.19;5030378;28;20064;-77
2022/04/07 02:26:26;;;;;;;1.08;0.50;;;;;;;4.62;100.00;98312.19;5049227;28;20033;-77
2022/04/07 02:28:52;;;;;;;5.90;1.42;;;;;;;4.51;100.00;98316.22;5039907;28;20674;-77
2022/04/07 02:31:17;;;;;;;10.35;2.75;;;;;;;4.36;100.00;98316.34;5064341;28;21674;-78
2022/04/07 02:33:44;;;;;;;0.40;0.40;;;;;;;4.22;100.00;98309.31;5059323;28;20032;-77
2022/04/07 02:36:09;;;;;;;2.60;0.93;;;;;;;4.12;100.00;98325.59;5062426;28;20079;-78
2022/04/07 02:38:36;;;;;;;5.88;1.88;;;;;;;3.94;100.00;98323.44;5065602;28;20067;-76
2022/04/07 02:41:03;;;;;;;5.10;1.40;;;;;;;3.85;100.00;98335.22;5039877;28;20474;-78
2022/04/07 02:43:28;;;;;;;2.50;0.98;;;;;;;3.85;100.00;98337.88;5062051;28;20099;-77
2022/04/07 02:45:54;;;;;;;7.47;1.58;;;;;;;3.77;100.00;98330.03;5063130;28;20123;-78
2022/04/07 02:48:20;;;;;;;4.20;0.77;;;;;;;3.68;100.00;98355.94;5028394;28;20076;-78
2022/04/07 02:50:45;;;;;;;2.58;1.02;;;;;;;3.54;100.00;98306.31;5048283;28;20032;-76
2022/04/07 02:53:13;;;;;;;11.05;2.13;;;;;;;3.61;100.00;98340.94;5044262;28;20093;-79
2022/04/07 02:55:39;;;;;;;1.95;1.02;;;;;;;3.63;100.00;98357.53;5037601;28;20429;-77
2022/04/07 02:58:05;;;;;;;4.63;1.30;;;;;;;3.67;100.00;98362.25;5048318;28;20047;-78
2022/04/07 03:00:31;;;;;;;7.93;1.60;;;;;;;3.71;100.00;98360.88;5044233;28;20037;-77
2022/04/07 03:02:57;;;;;;;0.65;0.65;;;;;;;3.73;100.00;98371.28;5037225;28;20495;-77
2022/04/07 03:05:23;;;;;;;3.22;0.88;;;;;;;3.70;100.00;98371.69;5043329;28;20040;-79
2022/04/07 03:07:48;;;;;;;5.00;1.02;;;;;;;3.71;100.00;98376.00;5063396;28;20039;-77
2022/04/07 03:10:15;;;;;;;0.65;0.65;;;;;;;3.96;100.00;98381.72;5045024;28;20518;-77
2022/04/07 03:12:41;;;;;;;0.40;0.40;;;;;;;4.15;100.00;98393.53;5062618;28;20041;-79
2022/04/07 03:15:08;;;;;;;1.48;0.77;;;;;;;4.28;100.00;98385.66;5044348;28;20040;-78
2022/04/07 03:17:33;;;;;;;0.45;0.45;;;;;;;4.23;100.00;98385.41;5041419;28;20043;-78
2022/04/07 03:20:00;;;;;;;7.40;2.63;;;;;;;4.28;100.00;98390.97;5037166;28;20035;-78
2022/04/07 03:22:26;;;;;;;1.00;0.65;;;;;;;4.30;100.00;98396.13;5049034;28;20028;-77
2022/04/07 03:24:52;;;;;;;2.30;1.00;;;;;;;4.22;100.00;98397.09;5059560;28;20032;-79
2022/04/07 03:27:18;;;;;;;1.05;0.82;;;;;;;4.29;100.00;98400.63;5047601;28;20115;-77
2022/04/07 03:29:44;;;;;;;4.10;2.42;;;;;;;4.26;100.00;98371.75;5063296;28;20035;-77
2022/04/07 03:32:09;;;;;;;8.32;1.80;;;;;;;4.23;100.00;98384.59;5063096;28;20115;-76
2022/04/07 03:34:39;;;;;;;4.53;1.45;;;;;;;4.18;100.00;98387.81;5056509;28;20032;-77
2022/04/07 03:37:05;;;;;;;8.50;1.60;;;;;;;4.14;100.00;98389.25;5049297;28;20031;-78
2022/04/07 03:39:32;;;;;;;3.15;0.90;;;;;;;4.00;100.00;98398.13;5065843;28;20036;-76
2022/04/07 03:41:58;;;;;;;2.03;0.70;;;;;;;3.82;100.00;98406.56;5047761;28;20039;-76
2022/04/07 03:44:23;;;;;;;26.33;4.40;;;;;;;3.70;100.00;98415.00;5056302;28;20036;-77
2022/04/07 03:46:49;;;;;;;2.47;0.77;;;;;;;3.64;100.00;98399.03;5056228;28;20028;-77
2022/04/07 03:49:14;;;;;;;2.25;0.70;;;;;;;3.79;100.00;98385.69;5026385;28;20060;-76
2022/04/07 03:51:40;;;;;;;1.77;0.70;;;;;;;3.81;100.00;98415.53;5043484;28;20037;-78
2022/04/07 03:54:06;;;;;;;1.85;0.50;;;;;;;3.63;100.00;98408.84;5053966;28;20471;-76
2022/04/07 03:56:32;;;;;;;2.22;0.70;;;;;;;3.59;100.00;98412.06;5064950;28;20453;-77
2022/04/07 03:58:58;;;;;;;3.78;1.15;;;;;;;3.41;100.00;98388.56;5062817;28;20082;-77
2022/04/07 04:01:26;;;;;;;2.38;1.85;;;;;;;3.41;100.00;98383.25;5044783;28;20032;-77
2022/04/07 04:03:51;;;;;;;1.10;0.80;;;;;;;3.50;100.00;98412.16;5061080;28;20033;-77
2022/04/07 04:06:17;;;;;;;0.50;0.50;;;;;;;3.43;100.00;98426.38;5045723;28;20036;-78
2022/04/07 04:08:42;;;;;;;49.55;7.10;;;;;;;3.42;100.00;98440.69;5052178;28;20431;-76
2022/04/07 04:11:08;;;;;;;2.75;0.88;;;;;;;3.49;100.00;98445.06;5035209;28;20140;-75
2022/04/07 04:13:34;;;;;;;1.73;0.98;;;;;;;3.43;100.00;98445.81;5038534;28;20385;-76
2022/04/07 04:16:01;;;;;;;0.63;0.60;;;;;;;3.38;100.00;98442.88;5032690;28;20032;-76
2022/04/07 04:18:27;;;;;;;2.85;1.25;;;;;;;3.30;100.00;98443.00;5065001;28;20052;-77
2022/04/07 04:20:52;;;;;;;3.50;0.88;;;;;;;3.44;100.00;98457.25;5050417;28;20079;-76
2022/04/07 04:23:18;;;;;;;4.35;1.00;;;;;;;3.40;100.00;98446.19;5051919;28;20033;-76
2022/04/07 04:25:43;;;;;;;1.77;1.10;;;;;;;3.45;100.00;98454.41;5048287;28;20032;-77
2022/04/07 04:28:09;;;;;;;7.32;1.30;;;;;;;3.12;100.00;98406.19;5032209;28;20033;-76
2022/04/07 04:30:35;;;;;;;6.30;1.73;;;;;;;3.47;100.00;98460.38;5061633;28;20060;-76
2022/04/07 04:33:01;;;;;;;11.65;2.25;;;;;;;3.43;100.00;98444.97;5067643;28;20522;-76
2022/04/07 04:35:26;;;;;;;10.88;2.65;;;;;;;3.46;100.00;98450.72;5036107;28;20037;-77
2022/04/07 04:37:52;;;;;;;6.95;1.80;;;;;;;3.53;100.00;98454.31;5051831;28;20052;-79
2022/04/07 04:40:18;;;;;;;5.40;1.13;;;;;;;3.55;100.00;98470.06;5069445;28;20515;-76
2022/04/07 04:42:44;;;;;;;8.32;1.70;;;;;;;3.51;100.00;98474.09;5069021;28;20029;-76
2022/04/07 04:45:09;;;;;;;6.05;1.60;;;;;;;3.51;100.00;98488.19;5066522;28;20534;-77
2022/04/07 04:47:35;;;;;;;4.68;1.40;;;;;;;3.47;100.00;98470.19;5029313;28;20035;-76
2022/04/07 04:50:06;;;;;;;6.05;1.58;;;;;;;3.46;100.00;98458.69;5036540;28;20111;-79
2022/04/07 04:52:32;;;;;;;6.50;1.77;;;;;;;3.40;100.00;98479.91;5043783;28;20036;-76
2022/04/07 04:54:57;;;;;;;3.53;1.65;;;;;;;3.52;100.00;98502.34;5032755;28;20043;-77
2022/04/07 04:57:23;;;;;;;6.47;1.80;;;;;;;3.47;100.00;98481.63;5051181;28;20036;-77
2022/04/07 04:59:48;;;;;;;2.05;1.23;;;;;;;3.56;100.00;98508.09;5050779;28;20036;-78
2022/04/07 05:02:14;;;;;;;2.55;1.00;;;;;;;3.39;100.00;98496.84;5062484;28;20048;-76
2022/04/07 05:04:40;;;;;;;5.78;1.33;;;;;;;3.35;100.00;98493.72;5042894;28;20505;-79
2022/04/07 05:07:05;;;;;;;3.60;1.17;;;;;;;3.42;100.00;98505.25;5048181;28;20040;-77
2022/04/07 05:09:31;;;;;;;11.57;2.28;;;;;;;3.47;100.00;98499.41;5064229;28;20033;-79
2022/04/07 05:11:57;;;;;;;5.43;1.63;;;;;;;3.57;100.00;98521.16;5077009;28;20028;-76
2022/04/07 05:14:23;;;;;;;2.67;1.30;;;;;;;3.59;100.00;98518.34;5063174;28;20074;-80
2022/04/07 05:16:48;;;;;;;5.82;1.85;;;;;;;3.56;100.00;98529.34;5062650;28;20056;-77
2022/04/07 05:19:14;;;;;;;1.70;1.25;;;;;;;3.50;100.00;98515.78;5045538;28;20583;-76
2022/04/07 05:21:39;;;;;;;2.40;0.95;;;;;;;3.34;100.00;98523.97;5061623;28;20448;-78
2022/04/07 05:24:05;;;;;;;6.07;1.67;;;;;;;3.29;100.00;98532.47;5060070;28;20091;-76
2022/04/07 05:26:31;;;;;;;7.88;2.45;;;;;;;3.25;100.00;98517.09;5044689;28;20028;-79
2022/04/07 05:28:56;;;;;;;4.07;1.33;;;;;;;3.17;100.00;98531.28;5047468;28;20051;-79
2022/04/07 05:31:22;;;;;;;3.70;1.35;;;;;;;3.10;100.00;98533.03;5055397;28;20502;-78
2022/04/07 05:33:47;;;;;;;9.95;1.85;;;;;;;2.99;100.00;98531.66;5035076;28;20032;-79
2022/04/07 05:36:13;;;;;;;3.50;1.33;;;;;;;2.99;100.00;98539.63;5061438;28;20458;-78
2022/04/07 05:38:39;;;;;;;5.38;1.42;;;;;;;3.04;100.00;98541.72;5059854;28;20131;-77
2022/04/07 05:41:04;;;;;;;14.77;1.67;;;;;;;2.93;100.00;98523.56;5036027;28;20040;-79
2022/04/07 05:43:30;;;;;;;3.53;1.38;;;;;;;3.15;100.00;98548.41;5044704;28;20033;-79
2022/04/07 05:45:55;;;;;;;11.23;1.35;;;;;;;3.02;100.00;98523.31;5062236;28;20024;-80
2022/04/07 05:48:21;;;;;;;3.13;1.30;;;;;;;3.01;100.00;98542.06;5056458;28;20036;-79
2022/04/07 05:50:47;;;;;;;6.80;1.10;;;;;;;2.94;100.00;98547.28;5047413;28;20037;-78
2022/04/07 05:53:12;;;;;;;1.30;1.08;;;;;;;3.01;100.00;98548.19;5026250;28;20649;-78
2022/04/07 05:55:38;;;;;;;5.05;1.10;;;;;;;3.07;100.00;98558.13;5028053;28;20031;-79
2022/04/07 05:58:07;;;;;;;7.07;1.48;;;;;;;3.03;100.00;98556.81;5059200;28;20028;-79
2022/04/07 06:00:37;;;;;;;13.27;3.45;;;;;;;3.12;100.00;98551.41;5055949;28;22195;-78
2022/04/07 06:03:03;;;;;;;6.57;1.60;;;;;;;3.32;100.00;98565.00;5061134;28;20028;-79
2022/04/07 06:05:28;;;;;;;4.07;1.05;;;;;;;3.32;100.00;98555.19;5042520;28;20032;-77
2022/04/07 06:08:01;;;;;;;7.32;1.50;;;;;;;3.30;100.00;98552.69;5030236;28;20101;-80
2022/04/07 06:10:27;;;;;;;6.00;1.45;;;;;;;3.28;100.00;98561.84;5040389;28;20075;-79
2022/04/07 06:12:53;;;;;;;8.75;1.45;;;;;;;3.40;100.00;98570.22;5045446;28;20821;-78
2022/04/07 06:15:18;;;;;;;9.15;1.60;;;;;;;3.36;100.00;98569.75;5034925;28;20399;-79
2022/04/07 06:17:47;;;;;;;8.10;1.60;;;;;;;3.31;100.00;98553.56;5038582;28;20037;-79
2022/04/07 06:20:13;;;;;;;7.68;1.60;;;;;;;3.84;100.00;98583.47;5059469;28;20036;-78
2022/04/07 06:22:40;;;;;;;6.28;1.55;;;;;;;4.07;100.00;98580.66;5049788;28;20040;-78
2022/04/07 06:25:09;;;;;;;5.63;1.50;;;;;;;4.63;100.00;98601.28;5044345;28;20497;-78
2022/04/07 06:27:39;;;;;;;6.70;1.75;;;;;;;5.02;100.00;98613.31;5061355;28;20032;-78
2022/04/07 06:30:06;;;;;;;11.63;2.80;;;;;;;5.14;100.00;98638.41;5050181;28;20448;-78
2022/04/07 06:32:32;;;;;;;6.35;1.95;;;;;;;5.50;100.00;98627.59;5048277;28;20043;-77
2022/04/07 06:34:57;;;;;;;4.30;1.45;;;;;;;5.67;100.00;98637.97;5045536;28;20032;-77
2022/04/07 06:37:23;;;;;;;12.98;2.35;;;;;;;5.52;100.00;98648.72;5030959;28;20069;-78
2022/04/07 06:39:49;;;;;;;6.32;1.67;;;;;;;5.49;100.00;98657.09;5058850;28;20036;-78
2022/04/07 06:42:15;;;;;;;5.30;1.33;;;;;;;5.44;100.00;98656.88;5043653;28;20059;-78
2022/04/07 06:44:40;;;;;;;4.00;1.08;;;;;;;5.42;100.00;98674.88;5061894;28;20032;-78
2022/04/07 06:47:06;;;;;;;4.45;1.33;;;;;;;5.43;100.00;98680.03;5059467;28;20036;-78
2022/04/07 06:49:32;;;;;;;4.00;1.05;;;;;;;5.26;100.00;98671.47;5042169;28;20085;-77
2022/04/07 06:51:57;;;;;;;5.20;1.35;;;;;;;5.93;100.00;98672.81;5058900;28;20029;-78
2022/04/07 06:54:23;;;;;;;4.68;1.10;;;;;;;6.42;100.00;98672.81;5039126;28;20083;-79
2022/04/07 06:56:49;;;;;;;5.82;1.75;;;;;;;6.45;100.00;98675.06;5044203;28;20040;-77
2022/04/07 06:59:14;;;;;;;5.38;0.75;;;;;;;6.26;100.00;98663.31;5063756;28;20040;-77
2022/04/07 07:01:41;;;;;;;2.40;0.80;;;;;;;6.29;100.00;98676.25;5049339;28;20032;-77
2022/04/07 07:04:07;;;;;;;3.63;0.95;;;;;;;6.62;100.00;98691.56;5040525;28;20035;-78
2022/04/07 07:06:32;;;;;;;5.78;1.02;;;;;;;6.88;100.00;98672.09;5044034;28;20033;-78
2022/04/07 07:08:58;;;;;;;3.30;1.00;;;;;;;7.25;100.00;98686.72;5060938;28;20040;-78
2022/04/07 07:11:23;;;;;;;2.53;1.10;;;;;;;7.61;100.00;98680.16;5029994;28;20229;-79
2022/04/07 07:13:49;;;;;;;3.40;0.90;;;;;;;7.98;99.52;98675.94;5043846;28;20037;-78
2022/04/07 07:16:15;;;;;;;6.65;1.02;;;;;;;8.73;96.27;98684.34;5065600;28;20291;-77
2022/04/07 07:18:42;;;;;;;7.68;1.75;;;;;;;9.77;91.53;98689.34;5031199;28;20036;-78
2022/04/07 07:21:10;;;;;;;7.65;1.30;;;;;;;10.66;87.92;98689.78;5055986;28;20033;-79
2022/04/07 07:23:36;;;;;;;11.15;1.52;;;;;;;11.36;80.85;98694.59;5034127;28;20048;-79
2022/04/07 07:26:01;;;;;;;8.95;1.50;;;;;;;11.54;82.48;98677.53;5051569;28;20032;-78
2022/04/07 07:28:27;;;;;;;9.65;2.00;;;;;;;12.33;80.37;98696.81;5061025;28;20119;-79
2022/04/07 07:30:52;;;;;;;9.30;1.90;;;;;;;12.80;76.04;98687.75;5029945;28;20036;-78
2022/04/07 07:33:18;;;;;;;7.03;1.42;;;;;;;12.96;76.34;98701.28;5058800;28;20032;-78
2022/04/07 07:35:45;;;;;;;5.45;1.25;;;;;;;13.38;74.14;98702.84;5058881;28;20385;-79
2022/04/07 07:38:12;;;;;;;7.10;2.03;;;;;;;13.92;64.17;98711.28;5061726;28;20028;-80
2022/04/07 07:40:38;;;;;;;13.80;2.00;;;;;;;12.81;71.41;98709.09;5045461;28;20071;-78
2022/04/07 07:43:04;;;;;;;6.13;1.67;;;;;;;12.98;71.98;98712.66;5039284;28;20048;-78
2022/04/07 07:45:32;;;;;;;6.95;1.45;;;;;;;13.35;65.60;98706.06;5064281;28;20078;-78
2022/04/07 07:47:57;;;;;;;9.43;2.15;;;;;;;12.55;69.57;98683.53;5047653;28;20028;-78
2022/04/07 07:50:23;;;;;;;11.88;2.33;;;;;;;13.60;64.37;98719.13;5047746;28;20074;-76
2022/04/07 07:52:49;;;;;;;11.65;2.42;;;;;;;14.17;57.66;98718.13;5048208;28;20025;-78
2022/04/07 07:55:16;;;;;;;8.95;2.38;;;;;;;14.47;59.58;98723.09;5068388;28;20080;-78
2022/04/07 07:57:42;;;;;;;9.55;1.98;;;;;;;14.85;59.28;98727.66;5045907;28;20044;-78
2022/04/07 08:00:09;;;;;;;10.02;2.45;;;;;;;15.57;57.95;98717.53;5036808;28;20482;-77
2022/04/07 08:02:36;;;;;;;6.18;2.10;;;;;;;15.85;57.15;98732.69;5047106;28;20028;-77
2022/04/07 08:05:02;;;;;;;10.93;2.60;;;;;;;16.17;53.94;98727.22;5063654;28;20042;-78
2022/04/07 08:07:28;;;;;;;11.45;2.67;;;;;;;16.14;48.71;98732.31;5066500;28;20051;-79
2022/04/07 08:09:56;;;;;;;9.70;2.47;;;;;;;15.95;46.00;98734.63;5053969;28;20309;-78
2022/04/07 08:12:26;;;;;;;8.65;1.63;;;;;;;14.10;51.99;98739.09;5064593;28;20049;-79
2022/04/07 08:14:51;;;;;;;7.68;1.85;;;;;;;12.19;61.26;98717.00;5044045;28;20504;-77
2022/04/07 08:17:18;;;;;;;10.73;1.65;;;;;;;11.26;61.67;98722.03;5037541;28;20102;-78
2022/04/07 08:19:43;;;;;;;7.55;1.33;;;;;;;10.75;62.32;98747.59;5039292;28;20105;-77
2022/04/07 08:22:09;;;;;;;11.35;2.20;;;;;;;10.87;62.27;98740.38;5070588;28;20036;-78
2022/04/07 08:24:35;;;;;;;5.78;1.85;;;;;;;13.77;52.70;98748.88;5067963;28;20500;-77
2022/04/07 08:27:07;;;;;;;7.70;1.38;;;;;;;14.32;48.27;98731.84;5036328;28;20032;-77
2022/04/07 08:29:33;;;;;;;7.80;1.77;;;;;;;15.60;45.58;98749.53;5066604;28;20036;-78
2022/04/07 08:31:59;;;;;;;13.32;2.00;;;;;;;14.53;48.72;98746.50;5051607;28;20055;-78
2022/04/07 08:34:25;;;;;;;10.13;2.85;;;;;;;15.08;45.32;98748.22;5073852;28;20548;-78
2022/04/07 08:36:54;;;;;;;8.30;2.10;;;;;;;14.77;46.55;98763.28;5053959;28;20039;-77
2022/04/07 08:39:20;;;;;;;7.22;1.67;;;;;;;14.05;47.74;98764.16;5030261;28;20064;-78
2022/04/07 08:41:47;;;;;;;13.27;2.63;;;;;;;12.81;50.34;98773.00;5049522;28;20474;-77
2022/04/07 08:44:17;;;;;;;5.97;1.50;;;;;;;12.30;51.82;98776.28;5060497;28;20115;-77
2022/04/07 08:46:53;;;;;;;6.13;1.70;;;;;;;13.15;49.39;98777.47;5066664;28;20068;-77
2022/04/07 08:49:23;;;;;;;8.77;2.05;;;;;;;12.74;49.52;98776.66;5034772;28;20181;-77
2022/04/07 08:51:53;;;;;;;10.68;1.90;;;;;;;15.31;44.37;98786.88;5034665;28;20137;-78
2022/04/07 08:54:19;;;;;;;11.40;3.95;;;;;;;16.24;40.03;98787.44;5059777;28;20033;-78
2022/04/07 08:56:46;;;;;;;4.13;1.88;;;;;;;18.12;37.46;98766.53;5052401;28;20040;-79
2022/04/07 08:59:12;;;;;;;6.55;1.33;;;;;;;18.81;36.52;98786.00;5067799;28;20036;-79
2022/04/07 09:01:37;;;;;;;6.57;1.58;;;;;;;18.80;35.78;98778.94;5054709;28;20035;-79
2022/04/07 09:04:03;;;;;;;6.90;2.03;;;;;;;15.26;40.84;98795.75;5047698;28;20459;-79
2022/04/07 09:06:33;;;;;;;5.18;1.73;;;;;;;12.75;47.02;98777.47;5042490;28;20052;-79
2022/04/07 09:09:10;;;;;;;5.90;1.38;;;;;;;11.80;51.69;98808.16;5046623;28;20032;-79
2022/04/07 09:11:35;;;;;;;4.97;1.58;;;;;;;10.94;56.97;98804.84;5053631;28;20051;-79
2022/04/07 09:14:01;;;;;;;6.00;1.42;;;;;;;10.44;59.48;98819.25;5051481;28;20391;-79
2022/04/07 09:16:27;;;;;;;9.02;2.17;;;;;;;10.17;60.46;98831.25;5038627;28;20075;-79
2022/04/07 09:18:53;;;;;;;7.85;1.50;;;;;;;13.01;52.09;98816.56;5071646;28;20044;-79
2022/04/07 09:21:24;;;;;;;5.88;1.55;;;;;;;11.88;53.28;98832.09;5052957;28;20100;-79
2022/04/07 09:23:55;;;;;;;6.50;2.20;;;;;;;14.14;47.55;98834.84;5069470;28;20044;-80
2022/04/07 09:26:21;;;;;;;7.97;1.80;;;;;;;16.42;42.72;98826.06;5067009;28;20051;-79
2022/04/07 09:28:46;;;;;;;9.02;2.78;;;;;;;17.38;39.32;98829.53;5038461;28;20470;-79
2022/04/07 09:31:13;;;;;;;9.10;2.60;;;;;;;18.05;39.29;98841.34;5044973;28;20082;-79
2022/04/07 09:33:39;;;;;;;6.70;1.42;;;;;;;17.87;39.88;98846.25;5054548;28;20032;-79
2022/04/07 09:36:07;;;;;;;6.85;1.55;;;;;;;15.22;43.86;98843.38;5050126;28;20091;-80
2022/04/07 09:38:34;;;;;;;7.25;1.40;;;;;;;13.12;47.71;98852.66;5071704;28;20028;-80
2022/04/07 09:41:06;;;;;;;6.43;1.35;;;;;;;11.90;51.84;98850.72;5042141;28;20063;-81
2022/04/07 09:43:58;;;;;;;5.63;2.47;;;;;;;12.75;49.69;98851.13;5063584;28;20437;-82
2022/04/07 09:46:35;;;;;;;6.63;2.20;;;;;;;15.25;43.72;98855.59;5048860;28;20033;-81
2022/04/07 09:49:08;;;;;;;7.13;1.92;;;;;;;17.29;38.25;98861.84;5052227;28;20044;-81
2022/04/07 09:51:46;;;;;;;10.65;2.78;;;;;;;17.72;38.49;98871.47;5062900;28;20087;-81
2022/04/07 09:54:17;;;;;;;11.90;2.55;;;;;;;18.54;38.11;98873.44;5069205;28;20039;-80
2022/04/07 09:56:44;;;;;;;12.52;2.75;;;;;;;15.38;44.77;98883.09;5038017;28;20047;-80
2022/04/07 09:59:11;;;;;;;9.75;2.05;;;;;;;13.28;50.08;98891.63;5035615;28;20036;-81
2022/04/07 10:01:40;;;;;;;12.15;3.80;;;;;;;14.80;48.73;98886.41;5066186;28;20035;-82
2022/04/07 10:04:08;;;;;;;6.68;2.08;;;;;;;15.05;48.14;98894.88;5069612;28;20048;-81
2022/04/07 10:06:34;;;;;;;11.10;3.50;;;;;;;18.00;41.39;98888.41;5051028;28;20055;-81
2022/04/07 10:09:04;;;;;;;11.00;2.22;;;;;;;19.55;37.31;98890.56;5060014;28;20025;-80
2022/04/07 10:11:34;;;;;;;11.30;1.88;;;;;;;19.27;37.47;98905.69;5046883;28;20039;-84
2022/04/07 10:14:14;;;;;;;10.15;1.42;;;;;;;15.35;44.19;98896.34;5060588;28;20038;-81
2022/04/07 10:16:40;;;;;;;8.30;1.77;;;;;;;13.06;50.93;98905.72;5062359;28;20097;-80
2022/04/07 10:19:10;;;;;;;10.73;2.67;;;;;;;12.00;55.93;98946.06;5041736;28;20049;-80
2022/04/07 10:21:35;;;;;;;12.63;2.28;;;;;;;11.23;54.10;98943.91;5057985;28;20029;-80
2022/04/07 10:24:28;;;;;;;8.82;2.08;;;;;;;10.14;59.48;98961.44;5051359;28;20048;-80
2022/04/07 10:27:00;;;;;;;5.18;1.05;;;;;;;9.17;64.12;98964.16;5062473;28;20036;-80
2022/04/07 10:29:34;;;;;;;1.15;1.00;;;;;;;8.38;67.69;98979.25;5062347;28;20032;-80
2022/04/07 10:32:12;;;;;;;6.78;1.63;;;;;;;7.63;71.58;98985.69;5053759;28;20032;-81
2022/04/07 10:34:57;;;;;;;6.97;1.65;;;;;;;7.09;76.04;98991.78;5065287;28;20028;-78
2022/04/07 10:37:52;;;;;;;4.18;1.42;;;;;;;6.60;83.89;98985.50;5063503;28;20037;-80
2022/04/07 10:40:38;;;;;;;4.55;1.00;;;;;;;6.26;89.82;98996.91;5045016;28;20075;-79
2022/04/07 10:43:03;;;;;;;4.40;1.17;;;;;;;5.96;94.46;99017.56;5051643;28;20043;-79
2022/04/07 10:45:49;;;;;;;1.80;1.15;;;;;;;5.46;95.43;99006.69;5069085;28;20107;-81
2022/04/07 10:48:23;;;;;;;2.65;1.15;;;;;;;5.35;98.69;99026.63;5046944;28;20033;-79
2022/04/07 10:51:01;;;;;;;5.82;1.10;;;;;;;5.31;100.00;99017.34;5064838;28;20082;-81
2022/04/07 10:53:37;;;;;;;5.28;1.40;;;;;;;5.55;100.00;99024.22;5063262;28;20131;-79
2022/04/07 10:56:08;;;;;;;1.98;1.40;;;;;;;5.78;100.00;99036.59;5041876;28;20122;-81
2022/04/07 10:58:37;;;;;;;1.80;0.88;;;;;;;6.13;100.00;99046.47;5070264;28;20511;-81
2022/04/07 11:01:03;;;;;;;2.95;0.95;;;;;;;6.39;100.00;99048.59;5068894;28;20036;-81
2022/04/07 11:03:28;;;;;;;2.90;1.17;;;;;;;6.70;100.00;99030.59;5050132;28;20043;-80
2022/04/07 11:05:58;;;;;;;3.10;1.40;;;;;;;7.76;94.67;99033.06;5053004;28;20046;-81
2022/04/07 11:08:24;;;;;;;2.90;1.10;;;;;;;11.17;78.62;99036.28;5037322;28;20127;-81
2022/04/07 11:10:52;;;;;;;1.02;0.90;;;;;;;13.28;70.82;99051.69;5059376;28;20115;-80
2022/04/07 11:13:19;;;;;;;5.65;1.20;;;;;;;10.84;75.45;99050.03;5067937;28;20157;-80
2022/04/07 11:15:49;;;;;;;1.75;0.70;;;;;;;8.91;84.84;99060.69;5062950;28;20386;-80
2022/04/07 11:18:22;;;;;;;3.95;0.82;;;;;;;8.23;88.59;99071.50;5036196;28;20131;-79
2022/04/07 11:21:07;;;;;;;;;;;;;;;9.12;88.92;99078.44;5070544;28;20044;-77
2022/04/07 11:23:47;;;;;;;2.30;0.90;;;;;;;10.78;83.63;99067.03;5066195;28;19912;-79
2022/04/07 11:26:20;;;;;;;1.45;0.88;;;;;;;13.02;75.15;99077.22;5052492;28;20040;-80
2022/04/07 11:29:04;;;;;;;0.95;0.95;;;;;;;13.62;73.06;99082.41;5034143;28;20040;-80
2022/04/07 11:31:43;;;;;;;1.38;1.00;;;;;;;15.27;61.40;99080.88;5036382;28;20749;-80
2022/04/07 11:34:39;;;;;;;1.20;1.10;;;;;;;15.40;62.52;99088.69;5052643;28;20047;-80